createdAt,value
2022-09-20T00:01:47.981Z,101211.72
2022-09-20T00:04:11.866Z,101211.06
2022-09-20T00:06:36.503Z,101213.31
2022-09-20T00:09:01.443Z,101212.88
2022-09-20T00:11:29.300Z,101212.66
2022-09-20T00:13:56.264Z,101214.72
2022-09-20T00:16:22.577Z,101216.44
2022-09-20T00:18:49.523Z,101215.53
2022-09-20T00:21:18.334Z,101213.06
2022-09-20T00:23:41.873Z,101216.41
2022-09-20T00:26:06.546Z,101216.84
2022-09-20T00:28:33.735Z,101218.78
2022-09-20T00:30:58.551Z,101215.78
2022-09-20T00:33:22.369Z,101224.75
2022-09-20T00:35:45.568Z,101215.97
2022-09-20T00:38:10.121Z,101210.72
2022-09-20T00:40:33.734Z,101218.53
2022-09-20T00:42:57.305Z,101219.06
2022-09-20T00:45:25.823Z,101222.53
2022-09-20T00:47:55.771Z,101215.22
2022-09-20T00:50:36.899Z,101222.84
2022-09-20T00:53:07.026Z,101222.69
2022-09-20T00:55:31.325Z,101215.53
2022-09-20T00:57:55.930Z,101225.50
2022-09-20T01:00:19.828Z,101222.84
2022-09-20T01:02:49.521Z,101224.94
2022-09-20T01:05:15.812Z,101231.06
2022-09-20T01:07:40.210Z,101226.47
2022-09-20T01:10:03.777Z,101227.13
2022-09-20T01:12:32.058Z,101227.63
2022-09-20T01:14:56.790Z,101223.25
2022-09-20T01:17:22.965Z,101220.34
2022-09-20T01:20:04.617Z,101220.44
2022-09-20T01:22:45.550Z,101225.47
2022-09-20T01:25:16.862Z,101220.22
2022-09-20T01:27:45.350Z,101223.88
2022-09-20T01:30:12.449Z,101217.63
2022-09-20T01:32:50.912Z,101222.03
2022-09-20T01:35:16.166Z,101221.38
2022-09-20T01:37:56.268Z,101225.59
2022-09-20T01:40:30.214Z,101223.56
2022-09-20T01:43:07.810Z,101235.34
2022-09-20T01:45:33.584Z,101226.13
2022-09-20T01:48:11.107Z,101233.00
2022-09-20T01:50:42.121Z,101231.69
2022-09-20T01:53:41.715Z,101236.31
2022-09-20T01:56:45.723Z,101228.00
2022-09-20T01:59:46.571Z,101240.25
2022-09-20T02:02:37.664Z,101240.66
2022-09-20T02:05:41.458Z,101241.09
2022-09-20T02:08:54.570Z,101246.25
2022-09-20T02:11:20.283Z,101250.78
2022-09-20T02:14:05.435Z,101245.09
2022-09-20T02:16:50.319Z,101239.06
2022-09-20T02:20:03.042Z,101247.69
2022-09-20T02:22:42.419Z,101256.06
2022-09-20T02:25:19.723Z,101252.00
2022-09-20T02:27:56.950Z,101248.75
2022-09-20T02:30:36.574Z,101253.16
2022-09-20T02:33:33.055Z,101247.28
2022-09-20T02:36:22.214Z,101257.44
2022-09-20T02:39:01.345Z,101255.41
2022-09-20T02:41:54.001Z,101261.44
2022-09-20T02:44:38.637Z,101258.09
2022-09-20T02:47:14.006Z,101255.88
2022-09-20T02:49:55.004Z,101248.78
2022-09-20T02:52:27.710Z,101260.34
2022-09-20T02:55:00.016Z,101257.53
2022-09-20T02:57:39.190Z,101266.69
2022-09-20T03:00:06.827Z,101259.06
2022-09-20T03:02:40.554Z,101256.41
2022-09-20T03:05:18.484Z,101258.63
2022-09-20T03:08:01.410Z,101261.16
2022-09-20T03:10:35.590Z,101264.03
2022-09-20T03:13:19.945Z,101265.84
2022-09-20T03:15:59.292Z,101265.09
2022-09-20T03:18:34.967Z,101268.97
2022-09-20T03:21:13.586Z,101272.59
2022-09-20T03:23:53.078Z,101272.59
2022-09-20T03:26:33.550Z,101277.75
2022-09-20T03:29:05.998Z,101281.84
2022-09-20T03:31:49.096Z,101277.13
2022-09-20T03:34:31.413Z,101273.78
2022-09-20T03:37:15.152Z,101285.09
2022-09-20T03:40:30.649Z,101280.69
2022-09-20T03:42:55.338Z,101280.56
2022-09-20T03:45:54.269Z,101276.00
2022-09-20T03:49:13.531Z,101287.25
2022-09-20T03:51:46.674Z,101279.31
2022-09-20T03:55:04.153Z,101285.34
2022-09-20T03:57:53.049Z,101287.28
2022-09-20T04:00:25.222Z,101284.91
2022-09-20T04:03:12.107Z,101288.13
2022-09-20T04:05:48.298Z,101282.69
2022-09-20T04:08:30.714Z,101285.66
2022-09-20T04:11:07.910Z,101289.66
2022-09-20T04:13:38.293Z,101290.81
2022-09-20T04:16:20.226Z,101294.91
2022-09-20T04:18:49.643Z,101301.44
2022-09-20T04:21:23.786Z,101302.00
2022-09-20T04:23:56.632Z,101299.06
2022-09-20T04:26:27.858Z,101299.72
2022-09-20T04:28:59.586Z,101300.81
2022-09-20T04:31:38.022Z,101301.00
2022-09-20T04:34:03.541Z,101295.00
2022-09-20T04:36:57.738Z,101303.91
2022-09-20T04:39:35.466Z,101306.50
2022-09-20T04:43:09.684Z,101310.91
2022-09-20T04:46:20.013Z,101309.94
2022-09-20T04:49:33.733Z,101311.00
2022-09-20T04:52:53.225Z,101310.34
2022-09-20T04:55:47.586Z,101313.47
2022-09-20T04:58:46.949Z,101312.94
2022-09-20T05:02:11.506Z,101314.75
2022-09-20T05:05:25.902Z,101315.19
2022-09-20T05:08:45.217Z,101318.19
2022-09-20T05:11:32.394Z,101320.53
2022-09-20T05:14:24.777Z,101331.72
2022-09-20T05:17:15.820Z,101328.28
2022-09-20T05:20:14.744Z,101325.91
2022-09-20T05:23:19.137Z,101331.94
2022-09-20T05:26:15.024Z,101332.81
2022-09-20T05:28:51.166Z,101343.94
2022-09-20T05:31:25.671Z,101349.56
2022-09-20T05:33:57.862Z,101343.94
2022-09-20T05:36:34.542Z,101350.97
2022-09-20T05:39:03.995Z,101346.56
2022-09-20T05:41:37.866Z,101349.88
2022-09-20T05:44:17.139Z,101355.53
2022-09-20T05:46:55.967Z,101361.16
2022-09-20T05:49:37.505Z,101358.78
2022-09-20T05:52:34.311Z,101365.31
2022-09-20T05:55:19.663Z,101365.84
2022-09-20T05:58:01.402Z,101367.13
2022-09-20T06:00:31.725Z,101369.06
2022-09-20T06:03:07.137Z,101377.13
2022-09-20T06:05:43.822Z,101377.44
2022-09-20T06:08:32.307Z,101376.44
2022-09-20T06:11:12.970Z,101379.69
2022-09-20T06:14:03.893Z,101385.56
2022-09-20T06:16:41.305Z,101387.41
2022-09-20T06:19:20.416Z,101390.63
2022-09-20T06:21:52.751Z,101390.09
2022-09-20T06:24:35.399Z,101400.09
2022-09-20T06:27:04.125Z,101397.72
2022-09-20T06:29:32.290Z,101403.72
2022-09-20T06:31:55.898Z,101405.97
2022-09-20T06:34:20.845Z,101408.28
2022-09-20T06:37:09.710Z,101400.41
2022-09-20T06:40:02.254Z,101402.22
2022-09-20T06:42:27.263Z,101403.34
2022-09-20T06:44:50.982Z,101401.59
2022-09-20T06:47:16.311Z,101411.50
2022-09-20T06:49:42.443Z,101412.44
2022-09-20T06:52:06.812Z,101411.28
2022-09-20T06:54:30.727Z,101417.06
2022-09-20T06:56:54.326Z,101417.94
2022-09-20T06:59:18.085Z,101411.38
2022-09-20T07:01:41.879Z,101419.84
2022-09-20T07:04:06.254Z,101420.19
2022-09-20T07:06:31.171Z,101424.06
2022-09-20T07:08:54.704Z,101426.63
2022-09-20T07:11:19.074Z,101430.38
2022-09-20T07:13:42.714Z,101434.16
2022-09-20T07:16:08.819Z,101428.28
2022-09-20T07:18:33.620Z,101433.59
2022-09-20T07:20:58.899Z,101432.41
2022-09-20T07:23:24.046Z,101432.22
2022-09-20T07:25:47.646Z,101432.72
2022-09-20T07:28:11.189Z,101434.16
2022-09-20T07:30:34.764Z,101438.56
2022-09-20T07:32:58.290Z,101438.28
2022-09-20T07:35:21.851Z,101434.38
2022-09-20T07:37:45.722Z,101438.97
2022-09-20T07:40:12.876Z,101444.84
2022-09-20T07:42:36.450Z,101448.72
2022-09-20T07:45:02.776Z,101447.88
2022-09-20T07:47:27.982Z,101455.13
2022-09-20T07:49:51.528Z,101456.72
2022-09-20T07:52:15.418Z,101460.41
2022-09-20T07:54:39.971Z,101461.97
2022-09-20T07:57:05.764Z,101465.09
2022-09-20T07:59:29.298Z,101463.00
2022-09-20T08:01:52.960Z,101463.47
2022-09-20T08:04:16.899Z,101472.19
2022-09-20T08:06:43.466Z,101464.50
2022-09-20T08:09:10.936Z,101474.41
2022-09-20T08:11:36.257Z,101474.00
2022-09-20T08:14:06.727Z,101472.34
2022-09-20T08:16:32.796Z,101476.25
2022-09-20T08:18:58.883Z,101471.16
2022-09-20T08:21:22.547Z,101477.16
2022-09-20T08:23:47.850Z,101478.44
2022-09-20T08:26:13.726Z,101474.47
2022-09-20T08:28:37.327Z,101481.34
2022-09-20T08:31:09.466Z,101471.41
2022-09-20T08:33:34.232Z,101477.31
2022-09-20T08:35:58.102Z,101478.75
2022-09-20T08:41:16.283Z,101487.81
2022-09-20T08:43:45.595Z,101484.06
2022-09-20T08:46:22.894Z,101489.94
2022-09-20T08:48:47.174Z,101486.94
2022-09-20T08:51:22.362Z,101485.41
2022-09-20T08:53:50.549Z,101490.53
2022-09-20T08:56:14.081Z,101488.16
2022-09-20T08:58:39.031Z,101492.06
2022-09-20T09:01:02.604Z,101485.06
2022-09-20T09:03:29.374Z,101491.78
2022-09-20T09:05:56.719Z,101482.38
2022-09-20T09:08:23.809Z,101482.56
2022-09-20T09:10:54.738Z,101484.13
2022-09-20T09:13:26.792Z,101483.47
2022-09-20T09:15:57.287Z,101487.47
2022-09-20T09:18:20.934Z,101484.50
2022-09-20T09:20:46.841Z,101489.75
2022-09-20T09:23:25.631Z,101487.47
2022-09-20T09:25:49.352Z,101490.13
2022-09-20T09:28:16.329Z,101486.78
2022-09-20T09:30:42.020Z,101484.41
2022-09-20T09:33:35.010Z,101488.34
2022-09-20T09:36:06.619Z,101486.47
2022-09-20T09:38:32.151Z,101485.22
2022-09-20T09:40:58.761Z,101490.84
2022-09-20T09:43:27.291Z,101498.38
2022-09-20T09:45:51.129Z,101493.38
2022-09-20T09:48:22.556Z,101489.38
2022-09-20T09:50:46.792Z,101484.13
2022-09-20T09:53:16.563Z,101484.97
2022-09-20T09:55:58.122Z,101485.97
2022-09-20T09:58:39.170Z,101478.22
2022-09-20T10:01:08.357Z,101482.97
2022-09-20T10:03:48.886Z,101478.06
2022-09-20T10:06:23.755Z,101476.00
2022-09-20T10:09:04.766Z,101484.81
2022-09-20T10:11:41.839Z,101481.75
2022-09-20T10:14:25.386Z,101483.47
2022-09-20T10:17:11.010Z,101496.00
2022-09-20T10:19:56.934Z,101499.59
2022-09-20T10:22:35.209Z,101497.28
2022-09-20T10:25:13.144Z,101487.94
2022-09-20T10:27:52.435Z,101495.47
2022-09-20T10:30:20.172Z,101484.97
2022-09-20T10:33:02.202Z,101477.44
2022-09-20T10:35:33.090Z,101494.00
2022-09-20T10:38:15.281Z,101498.72
2022-09-20T10:41:11.638Z,101505.72
2022-09-20T10:44:02.820Z,101509.91
2022-09-20T10:46:44.161Z,101510.69
2022-09-20T10:49:25.079Z,101514.78
2022-09-20T10:52:01.794Z,101523.56
2022-09-20T10:54:45.082Z,101533.03
2022-09-20T10:57:49.911Z,101545.34
2022-09-20T11:00:23.904Z,101544.22
2022-09-20T11:03:03.580Z,101543.00
2022-09-20T11:05:42.001Z,101545.03
2022-09-20T11:08:13.078Z,101547.56
2022-09-20T11:10:43.082Z,101533.88
2022-09-20T11:13:20.206Z,101535.03
2022-09-20T11:15:50.578Z,101540.69
2022-09-20T11:18:23.608Z,101548.34
2022-09-20T11:20:52.709Z,101536.50
2022-09-20T11:23:21.089Z,101535.41
2022-09-20T11:25:48.627Z,101532.31
2022-09-20T11:28:20.553Z,101533.69
2022-09-20T11:30:56.358Z,101543.25
2022-09-20T11:33:26.632Z,101541.66
2022-09-20T11:35:54.591Z,101543.44
2022-09-20T11:38:24.930Z,101545.06
2022-09-20T11:40:54.586Z,101547.72
2022-09-20T11:43:21.175Z,101545.19
2022-09-20T11:45:46.512Z,101549.06
2022-09-20T11:48:18.534Z,101547.97
2022-09-20T11:51:34.239Z,101547.47
2022-09-20T11:54:29.158Z,101546.91
2022-09-20T11:56:56.524Z,101557.50
2022-09-20T11:59:35.166Z,101554.63
2022-09-20T12:02:01.807Z,101553.03
2022-09-20T12:04:33.906Z,101560.19
2022-09-20T12:07:08.314Z,101553.81
2022-09-20T12:09:36.272Z,101561.03
2022-09-20T12:12:02.370Z,101556.28
2022-09-20T12:14:32.329Z,101551.69
2022-09-20T12:16:57.496Z,101554.19
2022-09-20T12:19:40.325Z,101564.97
2022-09-20T12:22:29.682Z,101563.25
2022-09-20T12:26:00.555Z,101556.72
2022-09-20T12:28:35.288Z,101554.88
2022-09-20T12:31:41.832Z,101555.88
2022-09-20T12:34:32.539Z,101559.16
2022-09-20T12:37:24.148Z,101566.59
2022-09-20T12:39:54.415Z,101570.28
2022-09-20T12:42:31.068Z,101590.72
2022-09-20T12:45:01.958Z,101591.59
2022-09-20T12:47:30.636Z,101598.50
2022-09-20T12:50:13.944Z,101605.28
2022-09-20T12:52:57.113Z,101610.06
2022-09-20T12:55:43.795Z,101602.97
2022-09-20T12:58:24.265Z,101601.75
2022-09-20T13:00:51.989Z,101598.34
2022-09-20T13:03:32.030Z,101602.09
2022-09-20T13:06:25.049Z,101601.56
2022-09-20T13:08:52.771Z,101602.47
2022-09-20T13:11:20.650Z,101606.84
2022-09-20T13:13:49.143Z,101610.53
2022-09-20T13:16:24.277Z,101606.75
2022-09-20T13:18:51.715Z,101607.78
2022-09-20T13:21:16.089Z,101607.31
2022-09-20T13:23:50.045Z,101619.09
2022-09-20T13:26:14.359Z,101620.41
2022-09-20T13:28:48.262Z,101616.50
2022-09-20T13:31:28.434Z,101617.19
2022-09-20T13:33:53.811Z,101613.78
2022-09-20T13:36:27.281Z,101627.25
2022-09-20T13:38:51.155Z,101626.00
2022-09-20T13:41:14.667Z,101623.84
2022-09-20T13:43:41.586Z,101622.72
2022-09-20T13:46:10.415Z,101616.88
2022-09-20T13:48:34.135Z,101622.66
2022-09-20T13:50:59.647Z,101632.97
2022-09-20T13:53:42.403Z,101614.41
2022-09-20T13:56:13.130Z,101613.94
2022-09-20T13:58:38.339Z,101621.25
2022-09-20T14:01:05.402Z,101617.38
2022-09-20T14:03:31.191Z,101614.94
2022-09-20T14:06:01.873Z,101611.22
2022-09-20T14:08:29.154Z,101610.94
2022-09-20T14:11:07.259Z,101610.81
2022-09-20T14:13:32.532Z,101601.53
2022-09-20T14:15:56.118Z,101603.38
2022-09-20T14:18:22.466Z,101597.66
2022-09-20T14:20:47.298Z,101598.97
2022-09-20T14:23:23.653Z,101598.78
2022-09-20T14:26:08.186Z,101600.97
2022-09-20T14:28:31.754Z,101599.13
2022-09-20T14:31:08.345Z,101604.66
2022-09-20T14:33:32.100Z,101607.25
2022-09-20T14:35:55.664Z,101606.38
2022-09-20T14:38:26.035Z,101605.53
2022-09-20T14:40:51.809Z,101611.81
2022-09-20T14:43:27.028Z,101624.41
2022-09-20T14:45:56.307Z,101616.38
2022-09-20T14:48:40.618Z,101613.09
2022-09-20T14:51:25.244Z,101620.81
2022-09-20T14:53:52.829Z,101631.50
2022-09-20T14:56:17.954Z,101623.53
2022-09-20T14:59:13.975Z,101622.72
2022-09-20T15:01:41.206Z,101633.91
2022-09-20T15:04:11.089Z,101667.22
2022-09-20T15:06:37.709Z,101674.03
2022-09-20T15:09:02.833Z,101670.31
2022-09-20T15:11:26.674Z,101663.63
2022-09-20T15:13:50.155Z,101667.28
2022-09-20T15:16:16.438Z,101676.25
2022-09-20T15:18:43.860Z,101675.34
2022-09-20T15:21:07.634Z,101679.69
2022-09-20T15:23:31.169Z,101677.34
2022-09-20T15:25:56.979Z,101684.66
2022-09-20T15:28:20.662Z,101685.81
2022-09-20T15:30:44.886Z,101676.47
2022-09-20T15:33:08.461Z,101679.63
2022-09-20T15:35:32.365Z,101677.59
2022-09-20T15:37:55.870Z,101672.34
2022-09-20T15:40:19.689Z,101670.50
2022-09-20T15:42:45.935Z,101670.16
2022-09-20T15:45:11.966Z,101673.97
2022-09-20T15:47:35.606Z,101675.78
2022-09-20T15:49:59.922Z,101681.06
2022-09-20T15:52:25.531Z,101675.19
2022-09-20T15:54:49.118Z,101675.63
2022-09-20T15:57:12.630Z,101676.00
2022-09-20T15:59:37.570Z,101683.69
2022-09-20T16:02:01.522Z,101686.50
2022-09-20T16:04:27.130Z,101681.34
2022-09-20T16:06:51.431Z,101691.00
2022-09-20T16:09:15.401Z,101694.44
2022-09-20T16:11:39.080Z,101701.72
2022-09-20T16:14:03.221Z,101703.44
2022-09-20T16:16:30.305Z,101689.31
2022-09-20T16:19:12.877Z,101693.50
2022-09-20T16:21:37.590Z,101695.47
2022-09-20T16:24:01.816Z,101691.50
2022-09-20T16:26:27.810Z,101692.50
2022-09-20T16:28:51.591Z,101685.19
2022-09-20T16:34:09.411Z,101687.91
2022-09-20T16:36:33.817Z,101689.00
2022-09-20T16:38:57.586Z,101688.50
2022-09-20T16:41:21.501Z,101694.50
2022-09-20T16:43:46.347Z,101693.31
2022-09-20T16:46:10.598Z,101690.09
2022-09-20T16:48:34.143Z,101696.25
2022-09-20T16:51:00.194Z,101690.38
2022-09-20T16:53:23.766Z,101698.72
2022-09-20T16:55:47.351Z,101701.44
2022-09-20T16:58:11.563Z,101700.69
2022-09-20T17:00:35.243Z,101711.03
2022-09-20T17:02:58.870Z,101708.06
2022-09-20T17:05:22.428Z,101714.94
2022-09-20T17:07:47.378Z,101727.47
2022-09-20T17:10:11.790Z,101721.97
2022-09-20T17:12:41.495Z,101722.09
2022-09-20T17:15:06.299Z,101730.31
2022-09-20T17:17:29.798Z,101741.03
2022-09-20T17:19:53.349Z,101738.31
2022-09-20T17:22:17.440Z,101734.84
2022-09-20T17:24:42.438Z,101736.81
2022-09-20T17:27:07.023Z,101744.81
2022-09-20T17:29:30.644Z,101738.31
2022-09-20T17:31:58.858Z,101735.34
2022-09-20T17:34:22.775Z,101739.38
2022-09-20T17:36:47.498Z,101745.25
2022-09-20T17:39:13.028Z,101750.53
2022-09-20T17:41:38.518Z,101759.59
2022-09-20T17:44:08.081Z,101753.03
2022-09-20T17:46:32.661Z,101753.03
2022-09-20T17:48:58.354Z,101767.88
2022-09-20T17:51:22.303Z,101763.81
2022-09-20T17:53:46.791Z,101783.88
2022-09-20T17:56:13.197Z,101780.38
2022-09-20T17:58:38.125Z,101774.22
2022-09-20T18:01:12.449Z,101781.19
2022-09-20T18:03:37.564Z,101778.94
2022-09-20T18:06:01.168Z,101782.31
2022-09-20T18:08:24.746Z,101791.50
2022-09-20T18:10:58.603Z,101796.13
2022-09-20T18:13:22.262Z,101798.66
2022-09-20T18:15:47.770Z,101796.28
2022-09-20T18:18:11.434Z,101796.88
2022-09-20T18:20:34.954Z,101802.03
2022-09-20T18:22:58.504Z,101811.44
2022-09-20T18:25:24.021Z,101809.19
2022-09-20T18:27:47.700Z,101800.16
2022-09-20T18:30:12.503Z,101802.19
2022-09-20T18:32:37.463Z,101809.97
2022-09-20T18:35:01.535Z,101805.75
2022-09-20T18:37:25.184Z,101803.81
2022-09-20T18:39:49.547Z,101811.56
2022-09-20T18:42:13.150Z,101817.06
2022-09-20T18:44:37.014Z,101809.28
2022-09-20T18:47:03.337Z,101815.31
2022-09-20T18:49:29.123Z,101807.69
2022-09-20T18:51:52.656Z,101819.63
2022-09-20T18:54:16.754Z,101817.69
2022-09-20T18:56:42.878Z,101825.88
2022-09-20T18:59:09.172Z,101822.72
2022-09-20T19:02:13.912Z,101828.41
2022-09-20T19:05:11.964Z,101824.81
2022-09-20T19:07:49.083Z,101828.94
2022-09-20T19:10:21.238Z,101835.38
2022-09-20T19:12:54.930Z,101836.19
2022-09-20T19:15:47.084Z,101838.97
2022-09-20T19:18:29.010Z,101841.97
2022-09-20T19:21:00.584Z,101837.31
2022-09-20T19:23:42.929Z,101837.44
2022-09-20T19:26:14.937Z,101831.16
2022-09-20T19:28:42.691Z,101834.69
2022-09-20T19:31:07.242Z,101839.28
2022-09-20T19:33:31.619Z,101837.66
2022-09-20T19:35:59.155Z,101843.81
2022-09-20T19:38:38.582Z,101853.13
2022-09-20T19:41:20.914Z,101849.13
2022-09-20T19:44:14.382Z,101859.44
2022-09-20T19:46:53.190Z,101858.75
2022-09-20T19:49:22.130Z,101864.13
2022-09-20T19:51:47.726Z,101870.47
2022-09-20T19:54:14.939Z,101864.97
2022-09-20T19:56:48.584Z,101872.00
2022-09-20T19:59:13.605Z,101877.09
2022-09-20T20:01:37.984Z,101872.59
2022-09-20T20:04:03.775Z,101879.97
2022-09-20T20:06:33.483Z,101877.78
2022-09-20T20:09:06.123Z,101879.69
2022-09-20T20:11:40.922Z,101886.13
2022-09-20T20:14:16.536Z,101877.28
2022-09-20T20:16:56.312Z,101884.00
2022-09-20T20:19:47.145Z,101883.22
2022-09-20T20:22:23.828Z,101888.41
2022-09-20T20:24:53.349Z,101893.78
2022-09-20T20:27:16.910Z,101895.38
2022-09-20T20:29:41.294Z,101892.53
2022-09-20T20:32:04.954Z,101891.06
2022-09-20T20:34:28.478Z,101902.19
2022-09-20T20:36:52.583Z,101903.22
2022-09-20T20:39:16.168Z,101900.91
2022-09-20T20:41:41.656Z,101898.22
2022-09-20T20:44:06.351Z,101904.91
2022-09-20T20:46:33.130Z,101905.16
2022-09-20T20:48:56.866Z,101905.50
2022-09-20T20:51:23.049Z,101916.50
2022-09-20T20:53:49.110Z,101914.88
2022-09-20T20:56:16.332Z,101917.84
2022-09-20T20:58:43.921Z,101912.53
2022-09-20T21:01:11.125Z,101914.53
2022-09-20T21:03:35.630Z,101918.72
2022-09-20T21:05:59.442Z,101919.59
2022-09-20T21:08:23.015Z,101930.66
2022-09-20T21:10:46.578Z,101929.97
2022-09-20T21:13:10.156Z,101929.97
2022-09-20T21:15:35.113Z,101929.28
2022-09-20T21:17:58.748Z,101943.97
2022-09-20T21:20:22.611Z,101934.91
2022-09-20T21:22:46.194Z,101934.47
2022-09-20T21:25:10.451Z,101937.50
2022-09-20T21:27:36.154Z,101940.03
2022-09-20T21:30:00.476Z,101948.31
2022-09-20T21:32:25.411Z,101945.72
2022-09-20T21:34:49.019Z,101942.09
2022-09-20T21:37:12.724Z,101948.81
2022-09-20T21:39:36.345Z,101951.59
2022-09-20T21:41:59.917Z,101957.28
2022-09-20T21:44:23.500Z,101948.75
2022-09-20T21:46:48.454Z,101962.28
2022-09-20T21:49:14.422Z,101962.13
2022-09-20T21:51:39.230Z,101954.69
2022-09-20T21:54:04.634Z,101959.75
2022-09-20T21:56:31.357Z,101951.22
2022-09-20T21:58:55.357Z,101952.25
2022-09-20T22:01:21.412Z,101958.22
2022-09-20T22:03:47.335Z,101953.81
2022-09-20T22:06:15.825Z,101954.75
2022-09-20T22:08:42.125Z,101960.44
2022-09-20T22:11:11.173Z,101961.84
2022-09-20T22:13:42.353Z,101949.56
2022-09-20T22:16:08.331Z,101961.09
2022-09-20T22:18:38.573Z,101961.34
2022-09-20T22:21:08.169Z,101960.09
2022-09-20T22:23:33.327Z,101958.44
2022-09-20T22:26:01.642Z,101961.13
2022-09-20T22:28:25.155Z,101962.69
2022-09-20T22:30:48.746Z,101964.19
2022-09-20T22:33:12.299Z,101965.78
2022-09-20T22:35:35.827Z,101960.19
2022-09-20T22:37:59.365Z,101958.78
2022-09-20T22:40:24.321Z,101956.50
2022-09-20T22:42:47.883Z,101958.56
2022-09-20T22:45:12.429Z,101954.75
2022-09-20T22:47:36.066Z,101961.06
2022-09-20T22:49:59.583Z,101960.13
2022-09-20T22:52:23.154Z,101962.34
2022-09-20T22:54:46.778Z,101961.38
2022-09-20T22:57:11.739Z,101963.59
2022-09-20T22:59:35.261Z,101965.44
2022-09-20T23:01:59.041Z,101957.63
2022-09-20T23:04:23.547Z,101967.63
2022-09-20T23:06:49.349Z,101975.59
2022-09-20T23:09:16.002Z,101971.25
2022-09-20T23:11:42.143Z,101977.50
2022-09-20T23:14:07.951Z,101976.78
2022-09-20T23:16:33.537Z,101973.47
2022-09-20T23:18:59.385Z,101976.31
2022-09-20T23:21:23.551Z,101979.47
2022-09-20T23:23:48.131Z,101983.22
2022-09-20T23:26:15.234Z,101988.44
2022-09-20T23:28:41.025Z,101988.56
2022-09-20T23:31:08.406Z,101989.31
2022-09-20T23:33:32.006Z,101994.72
2022-09-20T23:35:56.027Z,101988.44
2022-09-20T23:38:19.529Z,101990.16
2022-09-20T23:40:43.433Z,101992.28
2022-09-20T23:43:06.964Z,101993.38
2022-09-20T23:45:30.549Z,101997.78
2022-09-20T23:47:55.486Z,101994.47
2022-09-20T23:50:18.991Z,101995.56
2022-09-20T23:52:42.527Z,101996.28
2022-09-20T23:55:07.110Z,101996.72
2022-09-20T23:57:30.638Z,101995.66
2022-09-20T23:59:54.175Z,101997.69
